Time;durP1;ratioP1;P1;durP2;ratioP2;P2;SDS_P1;SDS_P2;PMS_P1;PMS_P2;Temp;Humidity;BMP_temperature;BMP_pressure;BME280_temperature;BME280_humidity;BME280_pressure;Samples;Min_cycle;Max_cycle;Signal;HPM_P1;HPM_P2
2022/07/12 00:00:44;;;;;;;18.15;17.15;;;;;;;;;;5048482;28;20108;-65
2022/07/12 00:03:10;;;;;;;17.98;16.98;;;;;;;;;;5049776;28;20482;-66
2022/07/12 00:05:36;;;;;;;18.73;17.73;;;;;;;;;;5049423;28;20127;-65
2022/07/12 00:08:01;;;;;;;22.63;21.42;;;;;;;;;;5048082;28;20448;-65
2022/07/12 00:10:27;;;;;;;18.55;17.55;;;;;;;;;;5048674;28;20037;-65
2022/07/12 00:12:54;;;;;;;18.90;17.90;;;;;;;;;;5049118;28;20043;-66
2022/07/12 00:15:20;;;;;;;18.10;17.10;;;;;;;;;;5049112;28;20112;-65
2022/07/12 00:17:45;;;;;;;21.63;20.42;;;;;;;;;;5047226;28;21210;-66
2022/07/12 00:20:11;;;;;;;19.80;18.70;;;;;;;;;;5049291;28;20499;-65
2022/07/12 00:22:36;;;;;;;22.08;20.90;;;;;;;;;;5049240;28;20123;-65
2022/07/12 00:25:02;;;;;;;20.30;19.17;;;;;;;;;;5048269;28;20076;-65
2022/07/12 00:27:28;;;;;;;31.50;29.85;;;;;;;;;;5049320;28;20116;-65
2022/07/12 00:29:54;;;;;;;42.00;39.80;;;;;;;;;;5049068;28;20366;-65
2022/07/12 00:32:19;;;;;;;36.22;34.33;;;;;;;;;;5048618;28;20043;-69
2022/07/12 00:34:44;;;;;;;34.42;32.65;;;;;;;;;;5047956;28;20032;-66
2022/07/12 00:37:10;;;;;;;40.15;38.05;;;;;;;;;;5048916;28;20465;-66
2022/07/12 00:39:35;;;;;;;43.67;41.40;;;;;;;;;;5048790;28;20040;-66
2022/07/12 00:42:01;;;;;;;54.58;51.80;;;;;;;;;;5048499;28;20029;-66
2022/07/12 00:44:26;;;;;;;44.65;42.38;;;;;;;;;;5048357;28;20241;-66
2022/07/12 00:46:52;;;;;;;53.08;50.38;;;;;;;;;;5048819;28;20067;-66
2022/07/12 00:49:18;;;;;;;51.20;48.60;;;;;;;;;;5048181;28;20021;-67
2022/07/12 00:51:44;;;;;;;44.80;42.45;;;;;;;;;;5048559;28;20116;-68
2022/07/12 00:54:10;;;;;;;46.38;43.97;;;;;;;;;;5048535;28;20039;-68
2022/07/12 00:56:36;;;;;;;41.45;39.35;;;;;;;;;;5048480;28;20058;-67
2022/07/12 00:59:02;;;;;;;28.42;26.92;;;;;;;;;;5047026;28;20398;-67
2022/07/12 01:01:28;;;;;;;25.58;24.23;;;;;;;;;;5047912;28;20029;-67
2022/07/12 01:03:54;;;;;;;36.33;34.45;;;;;;;;;;5048709;28;20033;-67
2022/07/12 01:06:20;;;;;;;27.20;25.80;;;;;;;;;;5048713;28;20033;-68
2022/07/12 01:08:45;;;;;;;29.67;28.10;;;;;;;;;;5047597;28;20044;-67
2022/07/12 01:11:11;;;;;;;37.72;35.80;;;;;;;;;;5047882;28;20029;-68
2022/07/12 01:13:37;;;;;;;35.88;33.97;;;;;;;;;;5047948;28;20048;-67
2022/07/12 01:16:04;;;;;;;43.78;41.53;;;;;;;;;;5047811;28;20024;-68
2022/07/12 01:18:31;;;;;;;62.45;59.25;;;;;;;;;;5047143;28;20041;-67
2022/07/12 01:20:57;;;;;;;62.97;59.75;;;;;;;;;;5048570;28;20430;-67
2022/07/12 01:23:25;;;;;;;66.28;62.92;;;;;;;;;;5047879;28;20101;-67
2022/07/12 01:25:51;;;;;;;79.93;75.85;;;;;;;;;;5046705;28;20060;-66
2022/07/12 01:28:16;;;;;;;99.60;94.57;;;;;;;;;;5048004;28;20089;-67
2022/07/12 01:30:43;;;;;;;76.07;72.22;;;;;;;;;;5047808;28;20158;-67
2022/07/12 01:33:09;;;;;;;81.97;77.82;;;;;;;;;;5047874;28;20040;-67
2022/07/12 01:35:36;;;;;;;85.68;81.40;;;;;;;;;;5045272;28;20043;-67
2022/07/12 01:38:01;;;;;;;93.93;89.22;;;;;;;;;;5046673;28;20039;-67
2022/07/12 01:40:27;;;;;;;95.82;91.03;;;;;;;;;;5047608;28;20104;-67
2022/07/12 01:42:53;;;;;;;86.55;82.20;;;;;;;;;;5045850;28;20078;-67
2022/07/12 01:45:18;;;;;;;76.22;72.43;;;;;;;;;;5047360;28;20036;-67
2022/07/12 01:47:44;;;;;;;87.60;83.22;;;;;;;;;;5047545;28;20029;-67
2022/07/12 01:50:10;;;;;;;84.00;79.80;;;;;;;;;;5047673;28;20033;-67
2022/07/12 01:52:37;;;;;;;69.85;66.32;;;;;;;;;;5046836;28;20631;-67
2022/07/12 01:55:03;;;;;;;58.58;55.40;;;;;;;;;;5047488;28;20039;-68
2022/07/12 01:57:29;;;;;;;54.03;51.33;;;;;;;;;;5047286;28;20041;-67
2022/07/12 01:59:55;;;;;;;39.25;37.25;;;;;;;;;;5047004;28;20107;-67
2022/07/12 02:02:21;;;;;;;39.80;37.78;;;;;;;;;;5047115;28;20029;-67
2022/07/12 02:04:46;;;;;;;48.65;46.17;;;;;;;;;;5047261;28;20350;-68
2022/07/12 02:07:12;;;;;;;41.45;39.35;;;;;;;;;;5046512;28;20502;-67
2022/07/12 02:09:37;;;;;;;64.50;61.25;;;;;;;;;;5046384;28;20033;-67
2022/07/12 02:12:03;;;;;;;58.50;55.60;;;;;;;;;;5046756;28;20029;-67
2022/07/12 02:14:28;;;;;;;58.75;55.78;;;;;;;;;;5046279;28;20103;-68
2022/07/12 02:16:54;;;;;;;38.70;36.72;;;;;;;;;;5045755;28;20462;-68
2022/07/12 02:19:19;;;;;;;40.97;38.88;;;;;;;;;;5047133;28;20025;-68
2022/07/12 02:21:45;;;;;;;35.17;33.35;;;;;;;;;;5046162;28;20636;-68
2022/07/12 02:24:10;;;;;;;35.83;33.92;;;;;;;;;;5046473;28;20044;-68
2022/07/12 02:26:36;;;;;;;45.72;43.42;;;;;;;;;;5046029;28;20033;-68
2022/07/12 02:29:06;;;;;;;63.00;59.85;;;;;;;;;;5046979;28;20063;-68
2022/07/12 02:31:31;;;;;;;67.47;64.07;;;;;;;;;;5061879;28;20592;-68
2022/07/12 02:33:57;;;;;;;71.20;67.60;;;;;;;;;;5046651;28;20040;-68
2022/07/12 02:36:23;;;;;;;87.82;83.43;;;;;;;;;;5046918;28;20025;-68
2022/07/12 02:38:48;;;;;;;69.13;65.63;;;;;;;;;;5046375;28;20407;-68
2022/07/12 02:41:14;;;;;;;74.80;71.05;;;;;;;;;;5046906;28;20075;-68
2022/07/12 02:43:39;;;;;;;73.13;69.45;;;;;;;;;;5046688;28;20091;-68
2022/07/12 02:46:12;;;;;;;48.05;45.63;;;;;;;;;;5046688;28;20178;-68
2022/07/12 02:48:38;;;;;;;55.80;52.95;;;;;;;;;;5044741;28;20080;-68
2022/07/12 02:51:04;;;;;;;77.82;73.85;;;;;;;;;;5045904;28;20600;-68
2022/07/12 02:53:30;;;;;;;68.38;64.88;;;;;;;;;;5046415;28;20056;-68
2022/07/12 02:55:55;;;;;;;83.90;79.65;;;;;;;;;;5046554;28;20067;-68
2022/07/12 02:58:21;;;;;;;141.55;134.48;;;;;;;;;;5046515;28;20024;-68
2022/07/12 03:00:46;;;;;;;121.97;115.90;;;;;;;;;;5046216;28;20036;-68
2022/07/12 03:03:12;;;;;;;105.30;100.10;;;;;;;;;;5046460;28;20033;-67
2022/07/12 03:05:38;;;;;;;126.75;120.47;;;;;;;;;;5046161;28;20061;-67
2022/07/12 03:08:03;;;;;;;122.45;116.38;;;;;;;;;;5044985;28;20041;-67
2022/07/12 03:10:29;;;;;;;120.18;114.28;;;;;;;;;;5046506;28;20049;-67
2022/07/12 03:12:54;;;;;;;130.70;124.28;;;;;;;;;;5046013;28;20472;-67
2022/07/12 03:15:19;;;;;;;121.75;115.75;;;;;;;;;;5046600;28;20025;-67
2022/07/12 03:17:45;;;;;;;54.08;51.30;;;;;;;;;;5045548;28;20067;-67
2022/07/12 03:20:11;;;;;;;64.35;61.05;;;;;;;;;;5046119;28;20021;-67
2022/07/12 03:22:40;;;;;;;50.75;48.15;;;;;;;;;;5042658;28;20041;-68
2022/07/12 03:25:07;;;;;;;64.35;61.00;;;;;;;;;;5045551;28;20033;-67
2022/07/12 03:27:33;;;;;;;58.63;55.63;;;;;;;;;;5043234;28;20039;-68
2022/07/12 03:29:59;;;;;;;53.22;50.42;;;;;;;;;;5046629;28;20528;-67
2022/07/12 03:32:25;;;;;;;49.78;47.25;;;;;;;;;;5046158;28;20080;-68
2022/07/12 03:34:50;;;;;;;72.13;68.47;;;;;;;;;;5045093;28;20107;-68
2022/07/12 03:37:16;;;;;;;59.03;56.05;;;;;;;;;;5045976;28;20120;-67
2022/07/12 03:39:41;;;;;;;57.15;54.28;;;;;;;;;;5045895;28;20339;-67
2022/07/12 03:42:06;;;;;;;68.20;64.70;;;;;;;;;;5045045;28;20096;-66
2022/07/12 03:44:33;;;;;;;115.97;110.25;;;;;;;;;;5044865;28;20029;-67
2022/07/12 03:46:59;;;;;;;101.45;96.25;;;;;;;;;;5043985;28;20039;-66
2022/07/12 03:49:25;;;;;;;104.28;99.13;;;;;;;;;;5045120;28;20044;-67
2022/07/12 03:51:50;;;;;;;81.15;77.15;;;;;;;;;;5045286;28;20309;-67
2022/07/12 03:54:15;;;;;;;85.00;80.78;;;;;;;;;;5044708;28;20056;-67
2022/07/12 03:59:24;;;;;;;103.07;97.97;;;;;;;;;;5044846;28;20032;-67
2022/07/12 04:01:50;;;;;;;111.43;105.88;;;;;;;;;;5045042;28;20028;-67
2022/07/12 04:04:15;;;;;;;128.38;121.97;;;;;;;;;;5044258;28;20025;-67
2022/07/12 04:06:40;;;;;;;119.25;113.30;;;;;;;;;;5045388;28;20044;-67
2022/07/12 04:09:06;;;;;;;116.40;110.57;;;;;;;;;;5045231;28;20551;-67
2022/07/12 04:11:32;;;;;;;50.80;48.20;;;;;;;;;;5045400;28;20518;-67
2022/07/12 04:13:58;;;;;;;68.63;65.18;;;;;;;;;;5043600;28;20036;-68
2022/07/12 04:16:27;;;;;;;75.40;71.60;;;;;;;;;;5044339;28;20366;-67
2022/07/12 04:18:53;;;;;;;78.10;74.00;;;;;;;;;;5044376;28;20033;-68
2022/07/12 04:21:19;;;;;;;133.05;126.35;;;;;;;;;;5027900;28;20033;-67
2022/07/12 04:23:45;;;;;;;132.02;125.45;;;;;;;;;;5045003;28;20045;-69
2022/07/12 04:26:10;;;;;;;101.45;96.40;;;;;;;;;;5045282;28;20090;-69
2022/07/12 04:28:35;;;;;;;113.68;108.03;;;;;;;;;;5044564;28;20063;-69
2022/07/12 04:31:02;;;;;;;62.33;59.08;;;;;;;;;;5045193;28;20809;-69
2022/07/12 04:33:27;;;;;;;71.13;67.53;;;;;;;;;;5045018;28;20043;-69
2022/07/12 04:35:52;;;;;;;77.05;73.15;;;;;;;;;;5044868;28;20025;-69
2022/07/12 04:38:18;;;;;;;55.25;52.42;;;;;;;;;;5044103;28;20028;-69
2022/07/12 04:40:43;;;;;;;66.15;62.78;;;;;;;;;;5045296;28;20394;-69
2022/07/12 04:43:08;;;;;;;115.90;110.10;;;;;;;;;;5043614;28;20028;-69
2022/07/12 04:45:34;;;;;;;128.95;122.50;;;;;;;;;;5044286;28;20075;-69
2022/07/12 04:48:00;;;;;;;95.82;91.07;;;;;;;;;;5048335;28;20514;-69
2022/07/12 04:50:25;;;;;;;72.47;68.85;;;;;;;;;;5047544;28;20032;-69
2022/07/12 04:52:50;;;;;;;71.88;68.30;;;;;;;;;;5047160;28;20245;-69
2022/07/12 04:55:16;;;;;;;70.60;67.03;;;;;;;;;;5048916;28;20036;-69
2022/07/12 04:57:41;;;;;;;80.47;76.47;;;;;;;;;;5048608;28;20084;-70
2022/07/12 05:00:07;;;;;;;70.88;67.35;;;;;;;;;;5047826;28;20055;-69
2022/07/12 05:02:33;;;;;;;61.65;58.55;;;;;;;;;;5047713;28;20116;-70
2022/07/12 05:04:59;;;;;;;81.32;77.15;;;;;;;;;;5048178;28;20421;-69
2022/07/12 05:07:25;;;;;;;104.38;99.13;;;;;;;;;;5048588;28;20063;-70
2022/07/12 05:09:51;;;;;;;71.57;67.88;;;;;;;;;;5046218;28;20075;-68
2022/07/12 05:12:17;;;;;;;73.10;69.40;;;;;;;;;;5048269;28;20102;-69
2022/07/12 05:14:42;;;;;;;83.00;78.80;;;;;;;;;;5048081;28;20040;-70
2022/07/12 05:17:07;;;;;;;83.63;79.43;;;;;;;;;;5047731;28;20029;-69
2022/07/12 05:19:33;;;;;;;85.13;80.82;;;;;;;;;;5047659;28;20037;-68
2022/07/12 05:21:58;;;;;;;97.35;92.43;;;;;;;;;;5046329;28;20103;-69
2022/07/12 05:24:23;;;;;;;111.65;106.10;;;;;;;;;;5046603;28;20078;-69
2022/07/12 05:26:49;;;;;;;97.55;92.68;;;;;;;;;;5046835;28;20083;-69
2022/07/12 05:29:14;;;;;;;91.97;87.32;;;;;;;;;;5047783;28;20025;-69
2022/07/12 05:31:39;;;;;;;82.43;78.22;;;;;;;;;;5047726;28;20450;-69
2022/07/12 05:34:05;;;;;;;90.88;86.32;;;;;;;;;;5046393;28;20395;-69
2022/07/12 05:36:30;;;;;;;93.00;88.22;;;;;;;;;;5046742;28;20037;-69
2022/07/12 05:38:56;;;;;;;129.35;122.78;;;;;;;;;;5047501;28;20017;-71
2022/07/12 05:41:21;;;;;;;132.15;125.47;;;;;;;;;;5047164;28;20041;-69
2022/07/12 05:43:46;;;;;;;130.80;124.18;;;;;;;;;;5048103;28;20068;-70
2022/07/12 05:46:12;;;;;;;55.42;52.63;;;;;;;;;;5044638;28;20028;-68
2022/07/12 05:48:38;;;;;;;50.97;48.38;;;;;;;;;;5047774;28;20141;-68
2022/07/12 05:53:48;;;;;;;51.47;48.88;;;;;;;;;;5047383;28;20021;-68
2022/07/12 05:56:13;;;;;;;43.50;41.30;;;;;;;;;;5047114;28;20040;-68
2022/07/12 05:58:39;;;;;;;54.22;51.53;;;;;;;;;;5045553;28;20033;-69
2022/07/12 06:01:05;;;;;;;37.35;35.45;;;;;;;;;;5047519;28;20048;-68
2022/07/12 06:03:30;;;;;;;36.53;34.63;;;;;;;;;;5046988;28;20119;-68
2022/07/12 06:05:56;;;;;;;28.55;27.05;;;;;;;;;;5043730;28;20625;-68
2022/07/12 06:08:21;;;;;;;44.88;42.60;;;;;;;;;;5046629;28;20032;-67
2022/07/12 06:10:46;;;;;;;47.92;45.53;;;;;;;;;;5046397;28;20036;-67
2022/07/12 06:13:12;;;;;;;48.88;46.40;;;;;;;;;;5046688;28;20040;-66
2022/07/12 06:15:37;;;;;;;51.95;49.35;;;;;;;;;;5046676;28;20128;-68
2022/07/12 06:18:03;;;;;;;67.47;64.07;;;;;;;;;;5046397;28;20104;-68
2022/07/12 06:20:29;;;;;;;63.08;59.90;;;;;;;;;;5045418;28;20094;-68
2022/07/12 06:22:54;;;;;;;65.75;62.45;;;;;;;;;;5043152;28;20433;-67
2022/07/12 06:25:20;;;;;;;44.80;42.50;;;;;;;;;;5047041;28;20021;-68
2022/07/12 06:27:47;;;;;;;45.45;43.15;;;;;;;;;;5045749;28;20060;-68
2022/07/12 06:30:18;;;;;;;49.55;47.08;;;;;;;;;;5047618;28;20554;-67
2022/07/12 06:32:47;;;;;;;66.65;63.33;;;;;;;;;;5045135;28;20029;-68
2022/07/12 06:35:14;;;;;;;49.67;47.17;;;;;;;;;;5045654;28;20158;-68
2022/07/12 06:37:40;;;;;;;56.03;53.20;;;;;;;;;;5046948;28;20056;-68
2022/07/12 06:40:06;;;;;;;53.28;50.38;;;;;;;;;;5046195;28;20370;-68
2022/07/12 06:42:32;;;;;;;61.25;58.15;;;;;;;;;;5046156;28;20765;-68
2022/07/12 06:44:57;;;;;;;61.60;58.50;;;;;;;;;;5044900;28;20063;-68
2022/07/12 06:47:22;;;;;;;84.15;79.93;;;;;;;;;;5044174;28;20029;-68
2022/07/12 06:49:48;;;;;;;60.90;57.80;;;;;;;;;;5045921;28;20112;-68
2022/07/12 06:52:13;;;;;;;59.72;56.67;;;;;;;;;;5045982;28;20127;-68
2022/07/12 06:54:39;;;;;;;64.72;61.38;;;;;;;;;;5045620;28;20044;-69
2022/07/12 06:57:04;;;;;;;71.07;67.45;;;;;;;;;;5046601;28;20362;-70
2022/07/12 06:59:30;;;;;;;64.25;60.92;;;;;;;;;;5046343;28;20029;-68
2022/07/12 07:01:58;;;;;;;61.47;58.28;;;;;;;;;;5045445;28;20137;-68
2022/07/12 07:04:24;;;;;;;87.57;83.07;;;;;;;;;;5046589;28;20049;-69
2022/07/12 07:06:50;;;;;;;132.30;125.80;;;;;;;;;;5046070;28;20450;-68
2022/07/12 07:09:15;;;;;;;188.93;179.63;;;;;;;;;;5046081;28;20021;-68
2022/07/12 07:11:41;;;;;;;175.13;166.45;;;;;;;;;;5045203;28;20036;-69
2022/07/12 07:14:06;;;;;;;225.23;213.85;;;;;;;;;;5046230;28;20029;-68
2022/07/12 07:16:32;;;;;;;246.13;233.82;;;;;;;;;;5045789;28;20036;-68
2022/07/12 07:18:57;;;;;;;318.83;302.77;;;;;;;;;;5044918;28;20032;-69
2022/07/12 07:21:24;;;;;;;220.60;209.65;;;;;;;;;;5045147;28;20044;-68
2022/07/12 07:23:49;;;;;;;302.63;287.50;;;;;;;;;;5044562;28;20400;-68
2022/07/12 07:26:15;;;;;;;325.45;309.13;;;;;;;;;;5046055;28;20439;-68
2022/07/12 07:31:24;;;;;;;215.13;204.48;;;;;;;;;;5045148;28;20032;-69
2022/07/12 07:33:50;;;;;;;316.00;300.33;;;;;;;;;;5045087;28;20040;-68
2022/07/12 07:36:15;;;;;;;289.48;275.23;;;;;;;;;;5045385;28;20170;-68
2022/07/12 07:38:40;;;;;;;234.73;223.02;;;;;;;;;;5045408;28;20068;-69
2022/07/12 07:41:06;;;;;;;225.10;213.90;;;;;;;;;;5045418;28;20032;-69
2022/07/12 07:43:31;;;;;;;141.35;134.27;;;;;;;;;;5043118;28;20478;-69
2022/07/12 07:45:57;;;;;;;255.30;242.50;;;;;;;;;;5045203;28;20033;-69
2022/07/12 07:48:22;;;;;;;77.40;73.55;;;;;;;;;;5045032;28;20166;-69
2022/07/12 07:50:47;;;;;;;84.55;80.30;;;;;;;;;;5045591;28;20329;-70
2022/07/12 07:53:14;;;;;;;196.48;186.50;;;;;;;;;;5045319;28;20032;-71
2022/07/12 07:55:39;;;;;;;73.10;69.18;;;;;;;;;;5043759;28;20089;-70
2022/07/12 07:58:05;;;;;;;63.85;60.63;;;;;;;;;;5045382;28;20123;-70
2022/07/12 08:00:30;;;;;;;57.95;55.05;;;;;;;;;;5045359;28;20053;-69
2022/07/12 08:02:56;;;;;;;66.60;63.28;;;;;;;;;;5045155;28;20040;-69
2022/07/12 08:05:21;;;;;;;97.90;93.03;;;;;;;;;;5045005;28;20040;-68
2022/07/12 08:07:46;;;;;;;58.42;55.47;;;;;;;;;;5042790;28;20666;-68
2022/07/12 08:10:12;;;;;;;54.42;51.67;;;;;;;;;;5044313;28;20032;-70
2022/07/12 08:12:37;;;;;;;57.20;54.30;;;;;;;;;;5044049;28;20529;-70
2022/07/12 08:15:03;;;;;;;50.90;48.30;;;;;;;;;;5044757;28;20435;-69
2022/07/12 08:17:28;;;;;;;54.47;51.65;;;;;;;;;;5044860;28;20040;-69
2022/07/12 08:19:53;;;;;;;78.30;74.43;;;;;;;;;;5041882;28;20078;-68
2022/07/12 08:22:19;;;;;;;231.27;219.90;;;;;;;;;;5048480;28;20039;-68
2022/07/12 08:24:44;;;;;;;220.48;209.75;;;;;;;;;;5046740;28;20078;-69
2022/07/12 08:27:09;;;;;;;243.27;231.40;;;;;;;;;;5048469;28;20462;-69
2022/07/12 08:29:35;;;;;;;255.60;243.10;;;;;;;;;;5047799;28;20116;-70
2022/07/12 08:32:00;;;;;;;68.55;65.10;;;;;;;;;;5048562;28;20060;-69
2022/07/12 08:34:26;;;;;;;89.03;84.55;;;;;;;;;;5048272;28;20045;-70
2022/07/12 08:36:51;;;;;;;182.85;173.70;;;;;;;;;;5048016;28;20052;-70
2022/07/12 08:39:16;;;;;;;104.32;99.03;;;;;;;;;;5048356;28;20024;-70
2022/07/12 08:41:42;;;;;;;166.35;157.77;;;;;;;;;;5048332;28;20018;-70
2022/07/12 08:44:08;;;;;;;223.63;212.25;;;;;;;;;;5048407;28;20462;-69
2022/07/12 08:46:33;;;;;;;240.50;228.27;;;;;;;;;;5048124;28;20102;-69
2022/07/12 08:49:06;;;;;;;274.63;260.83;;;;;;;;;;5048061;28;20076;-70
2022/07/12 08:51:31;;;;;;;230.15;218.52;;;;;;;;;;5047762;28;20086;-70
2022/07/12 08:54:07;;;;;;;224.00;212.90;;;;;;;;;;5048865;28;20033;-70
2022/07/12 08:56:34;;;;;;;185.07;175.85;;;;;;;;;;5047903;28;20060;-70
2022/07/12 08:59:17;;;;;;;204.82;194.65;;;;;;;;;;5048617;28;20017;-70
2022/07/12 09:01:52;;;;;;;271.63;258.02;;;;;;;;;;5047371;28;20095;-70
2022/07/12 09:04:18;;;;;;;159.95;151.98;;;;;;;;;;5048669;28;20056;-71
2022/07/12 09:06:44;;;;;;;284.88;270.55;;;;;;;;;;5048366;28;20033;-70
2022/07/12 09:09:10;;;;;;;313.95;298.13;;;;;;;;;;5047880;28;20095;-70
2022/07/12 09:11:39;;;;;;;258.35;245.32;;;;;;;;;;5047845;28;20029;-70
2022/07/12 09:14:05;;;;;;;193.70;184.13;;;;;;;;;;5048511;28;20044;-69
2022/07/12 09:16:31;;;;;;;131.55;125.05;;;;;;;;;;5047860;28;20037;-69
2022/07/12 09:19:17;;;;;;;76.13;72.32;;;;;;;;;;5047629;28;20029;-69
2022/07/12 09:21:53;;;;;;;105.90;100.65;;;;;;;;;;5048063;28;20037;-70
2022/07/12 09:24:23;;;;;;;77.63;73.78;;;;;;;;;;5046656;28;20467;-70
2022/07/12 09:26:52;;;;;;;187.77;178.43;;;;;;;;;;5047487;28;20037;-71
2022/07/12 09:29:18;;;;;;;66.50;63.17;;;;;;;;;;5047401;28;20114;-70
2022/07/12 09:37:17;;;;;;;73.75;70.05;;;;;;;;;;5045459;28;20029;-71
2022/07/12 09:39:43;;;;;;;73.70;70.00;;;;;;;;;;5046699;28;20466;-69
2022/07/12 09:42:10;;;;;;;62.35;59.22;;;;;;;;;;5047578;28;20029;-70
2022/07/12 09:44:35;;;;;;;67.47;64.07;;;;;;;;;;5046743;28;20529;-71
2022/07/12 09:47:01;;;;;;;136.73;129.95;;;;;;;;;;5043973;28;20367;-72
2022/07/12 09:49:28;;;;;;;87.57;83.22;;;;;;;;;;5046480;28;20072;-73
2022/07/12 09:51:57;;;;;;;141.70;134.63;;;;;;;;;;5046254;28;20028;-72
2022/07/12 09:54:26;;;;;;;66.88;63.47;;;;;;;;;;5045988;28;20037;-71
2022/07/12 09:56:55;;;;;;;141.75;134.65;;;;;;;;;;5046163;28;20098;-71
2022/07/12 09:59:23;;;;;;;261.50;248.60;;;;;;;;;;5042823;28;20021;-71
2022/07/12 10:01:48;;;;;;;259.52;246.77;;;;;;;;;;5047090;28;20025;-72
2022/07/12 10:04:18;;;;;;;214.38;203.80;;;;;;;;;;5047241;28;20489;-73
2022/07/12 10:06:44;;;;;;;241.48;229.63;;;;;;;;;;5046180;28;20532;-73
2022/07/12 10:09:10;;;;;;;196.23;186.45;;;;;;;;;;5045782;28;20029;-70
2022/07/12 10:11:37;;;;;;;187.95;178.68;;;;;;;;;;5047000;28;20768;-71
2022/07/12 10:14:03;;;;;;;174.55;165.85;;;;;;;;;;5046700;28;20033;-72
2022/07/12 10:16:33;;;;;;;182.32;173.30;;;;;;;;;;5044236;28;20052;-72
2022/07/12 10:19:36;;;;;;;173.00;164.38;;;;;;;;;;5045217;28;20139;-72
2022/07/12 10:22:06;;;;;;;232.43;220.93;;;;;;;;;;5045818;28;20029;-71
2022/07/12 10:24:32;;;;;;;129.13;122.68;;;;;;;;;;5046984;28;20036;-72
2022/07/12 10:26:58;;;;;;;187.73;178.52;;;;;;;;;;5046031;28;20048;-73
2022/07/12 10:29:25;;;;;;;182.77;173.75;;;;;;;;;;5044502;28;20400;-72
2022/07/12 10:31:51;;;;;;;163.20;155.10;;;;;;;;;;5046789;28;20028;-73
2022/07/12 10:34:24;;;;;;;194.13;184.48;;;;;;;;;;5044834;28;20036;-72
2022/07/12 10:36:55;;;;;;;229.73;218.40;;;;;;;;;;5046504;28;20348;-72
2022/07/12 10:39:28;;;;;;;259.73;246.85;;;;;;;;;;5046549;28;20028;-72
2022/07/12 10:42:05;;;;;;;211.00;200.55;;;;;;;;;;5044911;28;20418;-72
2022/07/12 10:44:38;;;;;;;248.68;236.43;;;;;;;;;;5045312;28;20126;-71
2022/07/12 10:47:06;;;;;;;236.85;225.18;;;;;;;;;;5046575;28;20064;-72
2022/07/12 10:49:33;;;;;;;215.45;204.73;;;;;;;;;;5046138;28;20079;-71
2022/07/12 10:52:10;;;;;;;153.50;145.80;;;;;;;;;;5046961;28;20021;-71
2022/07/12 10:54:36;;;;;;;182.43;173.35;;;;;;;;;;5042599;28;20120;-71
2022/07/12 10:57:02;;;;;;;158.18;150.30;;;;;;;;;;5045149;28;20495;-71
2022/07/12 10:59:30;;;;;;;140.68;133.63;;;;;;;;;;5043893;28;20542;-71
2022/07/12 11:01:56;;;;;;;282.98;268.83;;;;;;;;;;5046673;28;20297;-70
2022/07/12 11:04:22;;;;;;;181.52;172.50;;;;;;;;;;5045645;28;20471;-73
2022/07/12 11:06:49;;;;;;;232.65;221.15;;;;;;;;;;5046551;28;20124;-71
2022/07/12 11:09:16;;;;;;;155.57;147.77;;;;;;;;;;5046141;28;20029;-72
2022/07/12 11:11:50;;;;;;;99.65;94.68;;;;;;;;;;5045500;28;20037;-72
2022/07/12 11:14:26;;;;;;;122.78;116.65;;;;;;;;;;5045323;28;20033;-71
2022/07/12 11:16:54;;;;;;;110.32;104.40;;;;;;;;;;5044419;28;20091;-73
2022/07/12 11:19:23;;;;;;;103.25;98.10;;;;;;;;;;5045601;28;20029;-73
2022/07/12 11:21:55;;;;;;;85.88;81.60;;;;;;;;;;5045869;28;20849;-74
2022/07/12 11:24:22;;;;;;;124.97;118.72;;;;;;;;;;5046081;28;20108;-72
2022/07/12 11:26:48;;;;;;;105.03;99.80;;;;;;;;;;5044548;28;20056;-73
2022/07/12 11:29:14;;;;;;;118.93;113.00;;;;;;;;;;5046452;28;20045;-73
2022/07/12 11:31:39;;;;;;;92.95;88.32;;;;;;;;;;5045914;28;20025;-71
2022/07/12 11:34:05;;;;;;;72.10;68.50;;;;;;;;;;5044984;28;20197;-71
2022/07/12 11:36:30;;;;;;;94.82;90.05;;;;;;;;;;5044281;28;20056;-72
2022/07/12 11:38:56;;;;;;;92.53;87.93;;;;;;;;;;5044919;28;20021;-72
2022/07/12 11:41:23;;;;;;;79.72;75.72;;;;;;;;;;5046273;28;20171;-72
2022/07/12 11:43:48;;;;;;;59.20;56.20;;;;;;;;;;5045853;28;20037;-72
2022/07/12 11:46:15;;;;;;;75.07;71.30;;;;;;;;;;5044068;28;20063;-72
2022/07/12 11:48:42;;;;;;;57.60;54.70;;;;;;;;;;5044406;28;20307;-72
2022/07/12 11:51:10;;;;;;;59.92;56.88;;;;;;;;;;5044581;28;20415;-73
2022/07/12 11:53:37;;;;;;;62.90;59.72;;;;;;;;;;5044895;28;20037;-72
2022/07/12 11:56:04;;;;;;;58.17;55.28;;;;;;;;;;5047011;28;20029;-73
2022/07/12 11:58:32;;;;;;;71.75;68.15;;;;;;;;;;5049577;28;20033;-72
2022/07/12 12:00:57;;;;;;;59.83;56.83;;;;;;;;;;5049898;28;20040;-69
2022/07/12 12:03:24;;;;;;;58.65;55.72;;;;;;;;;;5048734;28;20040;-74
2022/07/12 12:05:51;;;;;;;62.92;59.72;;;;;;;;;;5039611;28;20051;-73
2022/07/12 12:08:18;;;;;;;64.50;61.20;;;;;;;;;;5049176;28;20044;-72
2022/07/12 12:10:57;;;;;;;62.83;59.67;;;;;;;;;;5044791;28;20450;-73
2022/07/12 12:13:23;;;;;;;54.88;52.08;;;;;;;;;;5042790;28;20183;-73
2022/07/12 12:15:51;;;;;;;68.82;65.35;;;;;;;;;;5044076;28;20037;-72
2022/07/12 12:18:17;;;;;;;64.82;61.53;;;;;;;;;;5045570;28;20552;-73
2022/07/12 12:20:42;;;;;;;65.28;61.97;;;;;;;;;;5045806;28;20040;-74
2022/07/12 12:23:18;;;;;;;54.65;51.90;;;;;;;;;;5045473;28;20483;-74
2022/07/12 12:25:45;;;;;;;67.65;64.28;;;;;;;;;;5023992;28;20052;-74
2022/07/12 12:28:12;;;;;;;59.50;56.53;;;;;;;;;;5043234;28;20169;-66
2022/07/12 12:30:59;;;;;;;68.47;65.03;;;;;;;;;;5046443;28;20378;-64
2022/07/12 12:33:35;;;;;;;61.75;58.67;;;;;;;;;;5044103;28;20037;-65
2022/07/12 12:36:29;;;;;;;63.55;60.35;;;;;;;;;;5044898;28;20461;-64
2022/07/12 12:39:00;;;;;;;64.38;61.17;;;;;;;;;;5046403;28;20051;-64
2022/07/12 12:41:28;;;;;;;61.85;58.72;;;;;;;;;;5045139;28;20033;-64
2022/07/12 12:43:58;;;;;;;66.00;62.63;;;;;;;;;;5045361;28;20098;-65
2022/07/12 12:49:45;;;;;;;68.35;64.95;;;;;;;;;;5045083;28;20144;-64
2022/07/12 12:52:11;;;;;;;70.18;66.68;;;;;;;;;;5045587;28;20536;-65
2022/07/12 12:54:38;;;;;;;83.38;79.22;;;;;;;;;;5044438;28;20138;-65
2022/07/12 12:57:07;;;;;;;75.18;71.43;;;;;;;;;;5045304;28;20032;-66
2022/07/12 12:59:32;;;;;;;61.92;58.83;;;;;;;;;;5044602;28;20033;-65
2022/07/12 13:01:58;;;;;;;71.93;68.32;;;;;;;;;;5044047;28;20442;-65
2022/07/12 13:04:31;;;;;;;75.35;71.63;;;;;;;;;;5044506;28;20037;-65
2022/07/12 13:06:57;;;;;;;62.47;59.38;;;;;;;;;;5044109;28;20036;-65
2022/07/12 13:09:23;;;;;;;63.50;60.30;;;;;;;;;;5045877;28;20033;-65
2022/07/12 13:11:49;;;;;;;75.88;72.10;;;;;;;;;;5043309;28;20051;-62
2022/07/12 13:14:14;;;;;;;74.43;70.70;;;;;;;;;;5043751;28;20120;-65
2022/07/12 13:16:40;;;;;;;69.45;66.00;;;;;;;;;;5044151;28;20194;-65
2022/07/12 13:19:06;;;;;;;66.97;63.65;;;;;;;;;;5044710;28;20512;-65
2022/07/12 13:21:31;;;;;;;85.88;81.68;;;;;;;;;;5045769;28;20080;-64
2022/07/12 13:23:56;;;;;;;77.15;73.35;;;;;;;;;;5047516;28;20040;-65
2022/07/12 13:26:22;;;;;;;76.88;73.07;;;;;;;;;;5048740;28;20033;-65
2022/07/12 13:28:47;;;;;;;75.97;72.18;;;;;;;;;;5048060;28;20410;-65
2022/07/12 13:31:13;;;;;;;78.38;74.47;;;;;;;;;;5048651;28;20032;-64
2022/07/12 13:33:38;;;;;;;79.38;75.38;;;;;;;;;;5048135;28;20108;-64
2022/07/12 13:36:03;;;;;;;68.55;65.15;;;;;;;;;;5047691;28;20421;-65
2022/07/12 13:38:29;;;;;;;72.18;68.57;;;;;;;;;;5047270;28;20033;-65
2022/07/12 13:40:54;;;;;;;68.15;64.75;;;;;;;;;;5048151;28;20174;-64
2022/07/12 13:43:19;;;;;;;71.70;68.15;;;;;;;;;;5048275;28;20039;-73
2022/07/12 13:45:45;;;;;;;76.07;72.28;;;;;;;;;;5047738;28;20056;-74
2022/07/12 13:48:11;;;;;;;71.32;67.78;;;;;;;;;;5047746;28;20029;-72
2022/07/12 13:50:37;;;;;;;76.82;73.03;;;;;;;;;;5047165;28;20045;-76
2022/07/12 13:53:02;;;;;;;81.90;77.88;;;;;;;;;;5046980;28;20093;-79
2022/07/12 13:55:30;;;;;;;85.22;80.93;;;;;;;;;;5045759;28;20114;-78
2022/07/12 13:57:56;;;;;;;78.53;74.63;;;;;;;;;;5046092;28;20036;-77
2022/07/12 14:00:21;;;;;;;85.88;81.65;;;;;;;;;;5046657;28;20470;-74
2022/07/12 14:02:48;;;;;;;79.85;75.93;;;;;;;;;;5046353;28;20032;-77
2022/07/12 14:05:15;;;;;;;93.00;88.40;;;;;;;;;;5047992;28;20017;-77
2022/07/12 14:07:42;;;;;;;72.03;68.43;;;;;;;;;;5047533;28;20057;-75
2022/07/12 14:10:09;;;;;;;79.95;76.00;;;;;;;;;;5046535;28;20029;-75
2022/07/12 14:12:35;;;;;;;97.35;92.55;;;;;;;;;;5035458;28;20681;-74
2022/07/12 14:17:44;;;;;;;97.97;93.15;;;;;;;;;;5046956;28;20029;-74
2022/07/12 14:20:14;;;;;;;68.00;64.60;;;;;;;;;;5046221;28;20017;-74
2022/07/12 14:22:40;;;;;;;87.78;83.47;;;;;;;;;;5045256;28;20036;-74
2022/07/12 14:25:08;;;;;;;104.43;99.30;;;;;;;;;;5047021;28;20028;-74